createdAt,value
2022-09-25T00:02:53.514Z,8.62
2022-09-25T00:07:56.520Z,8.61
2022-09-25T00:12:58.260Z,8.63
2022-09-25T00:18:00.007Z,8.61
2022-09-25T00:23:02.362Z,8.60
2022-09-25T00:28:04.131Z,8.71
2022-09-25T00:33:05.958Z,8.73
2022-09-25T00:38:07.669Z,8.67
2022-09-25T00:43:46.269Z,8.65
2022-09-25T00:49:22.478Z,8.57
2022-09-25T00:54:34.659Z,8.49
2022-09-25T00:59:41.481Z,8.43
2022-09-25T01:04:46.258Z,8.32
2022-09-25T01:09:48.350Z,8.31
2022-09-25T01:14:50.214Z,8.31
2022-09-25T01:20:16.865Z,8.32
2022-09-25T01:25:21.627Z,8.38
2022-09-25T01:30:23.869Z,8.44
2022-09-25T01:36:04.128Z,8.52
2022-09-25T01:41:14.204Z,8.53
2022-09-25T01:46:19.675Z,8.53
2022-09-25T01:51:44.930Z,8.52
2022-09-25T01:56:53.700Z,8.55
2022-09-25T02:01:57.115Z,8.55
2022-09-25T02:07:03.767Z,8.54
2022-09-25T02:12:21.011Z,8.48
2022-09-25T02:17:51.000Z,8.41
2022-09-25T02:22:55.563Z,8.32
2022-09-25T02:27:57.323Z,8.31
2022-09-25T02:32:59.041Z,8.31
2022-09-25T02:38:00.848Z,8.30
2022-09-25T02:43:11.868Z,8.33
2022-09-25T02:48:27.425Z,8.23
2022-09-25T02:54:01.232Z,8.20
2022-09-25T02:59:08.970Z,8.14
2022-09-25T03:04:12.079Z,8.06
2022-09-25T03:09:18.682Z,8.02
2022-09-25T03:14:20.905Z,7.89
2022-09-25T03:19:25.046Z,7.77
2022-09-25T03:24:27.234Z,7.72
2022-09-25T03:29:31.136Z,7.76
2022-09-25T03:34:32.911Z,7.76
2022-09-25T03:39:34.713Z,7.69
2022-09-25T03:44:38.752Z,7.63
2022-09-25T03:49:40.543Z,7.61
2022-09-25T03:54:42.256Z,7.65
2022-09-25T03:59:44.036Z,7.69
2022-09-25T04:04:45.927Z,7.75
2022-09-25T04:09:47.728Z,7.84
2022-09-25T04:14:49.508Z,7.87
2022-09-25T04:19:52.708Z,7.95
2022-09-25T04:24:54.982Z,8.05
2022-09-25T04:29:57.289Z,8.11
2022-09-25T04:34:59.262Z,8.21
2022-09-25T04:40:01.182Z,8.21
2022-09-25T04:45:03.225Z,8.26
2022-09-25T04:50:05.158Z,8.34
2022-09-25T04:55:07.005Z,8.45
2022-09-25T05:00:09.212Z,8.49
2022-09-25T05:05:10.785Z,8.51
2022-09-25T05:10:14.749Z,8.48
2022-09-25T05:15:16.469Z,8.45
2022-09-25T05:20:18.075Z,8.41
2022-09-25T05:25:20.047Z,8.38
2022-09-25T05:30:22.651Z,8.31
2022-09-25T05:35:24.908Z,8.36
2022-09-25T05:40:26.786Z,8.41
2022-09-25T05:45:28.446Z,8.46
2022-09-25T05:50:32.401Z,8.43
2022-09-25T05:55:34.052Z,8.47
2022-09-25T06:00:35.569Z,8.52
2022-09-25T06:05:37.198Z,8.56
2022-09-25T06:10:39.533Z,8.72
2022-09-25T06:15:42.133Z,8.96
2022-09-25T06:20:43.973Z,9.32
2022-09-25T06:25:45.870Z,9.78
2022-09-25T06:30:47.746Z,10.19
2022-09-25T06:35:50.184Z,10.58
2022-09-25T06:40:51.815Z,11.04
2022-09-25T06:45:53.443Z,11.47
2022-09-25T06:50:57.133Z,11.76
2022-09-25T06:55:59.869Z,11.97
2022-09-25T07:01:04.157Z,12.00
2022-09-25T07:06:11.175Z,12.07
2022-09-25T07:11:22.440Z,12.05
2022-09-25T07:16:26.827Z,11.91
2022-09-25T07:21:32.076Z,11.77
2022-09-25T07:26:34.617Z,11.83
2022-09-25T07:31:38.069Z,11.93
2022-09-25T07:36:41.173Z,11.94
2022-09-25T07:41:42.815Z,11.94
2022-09-25T07:46:45.894Z,12.01
2022-09-25T07:51:47.634Z,12.26
2022-09-25T07:56:49.332Z,12.36
2022-09-25T08:01:53.959Z,12.58
2022-09-25T08:06:58.953Z,12.92
2022-09-25T08:12:00.570Z,12.99
2022-09-25T08:17:02.141Z,13.13
2022-09-25T08:22:03.761Z,13.40
2022-09-25T08:27:05.402Z,13.68
2022-09-25T08:32:06.989Z,13.89
2022-09-25T08:37:10.178Z,14.06
2022-09-25T08:42:19.911Z,14.49
2022-09-25T08:47:44.558Z,14.83
2022-09-25T08:52:49.586Z,15.22
2022-09-25T08:57:55.452Z,15.40
2022-09-25T09:02:58.724Z,15.64
2022-09-25T09:08:12.136Z,15.77
2022-09-25T09:13:28.730Z,16.32
2022-09-25T09:18:37.518Z,16.68
2022-09-25T09:23:51.129Z,16.48
2022-09-25T09:29:49.983Z,16.61
2022-09-25T09:35:06.212Z,17.07
2022-09-25T09:40:39.506Z,17.52
2022-09-25T09:45:49.871Z,17.60
2022-09-25T09:50:56.779Z,17.01
2022-09-25T09:56:07.353Z,17.69
2022-09-25T10:01:36.541Z,18.11
2022-09-25T10:06:39.018Z,17.80
2022-09-25T10:11:42.065Z,17.63
2022-09-25T10:16:43.652Z,18.06
2022-09-25T10:21:53.765Z,17.68
2022-09-25T10:26:55.398Z,18.33
2022-09-25T10:32:03.990Z,18.35
2022-09-25T10:37:20.339Z,18.29
2022-09-25T10:43:14.765Z,18.59
2022-09-25T10:48:50.572Z,18.99
2022-09-25T10:54:09.972Z,18.98
2022-09-25T10:59:20.534Z,18.56
2022-09-25T11:04:28.256Z,19.52
2022-09-25T11:09:32.522Z,22.07
2022-09-25T11:14:36.088Z,21.89
2022-09-25T11:19:38.825Z,23.60
2022-09-25T11:24:46.679Z,24.93
2022-09-25T11:30:02.653Z,26.76
2022-09-25T11:35:23.182Z,26.83
2022-09-25T11:40:52.362Z,27.04
2022-09-25T11:46:02.632Z,25.73
2022-09-25T11:51:22.842Z,26.18
2022-09-25T11:56:56.902Z,24.51
2022-09-25T12:02:15.955Z,23.25
2022-09-25T12:07:43.853Z,24.67
2022-09-25T12:13:05.756Z,26.15
2022-09-25T12:18:39.355Z,26.91
2022-09-25T12:23:52.376Z,26.93
2022-09-25T12:29:11.789Z,25.26
2022-09-25T12:34:40.211Z,20.97
2022-09-25T12:39:47.649Z,21.21
2022-09-25T12:45:13.042Z,23.17
2022-09-25T12:50:17.503Z,23.77
2022-09-25T12:55:26.619Z,25.09
2022-09-25T13:00:31.580Z,21.53
2022-09-25T13:05:44.329Z,21.66
2022-09-25T13:11:02.248Z,21.60
2022-09-25T13:16:06.367Z,20.11
2022-09-25T13:21:36.612Z,19.51
2022-09-25T13:26:52.684Z,18.23
2022-09-25T13:32:25.126Z,17.76
2022-09-25T13:37:32.978Z,17.84
2022-09-25T13:42:39.111Z,18.10
2022-09-25T13:47:53.964Z,18.05
2022-09-25T13:53:16.699Z,17.75
2022-09-25T13:58:23.157Z,17.52
2022-09-25T14:03:45.775Z,17.02
2022-09-25T14:08:48.228Z,16.75
2022-09-25T14:13:55.205Z,16.52
2022-09-25T14:18:59.185Z,16.59
2022-09-25T14:24:36.035Z,16.53
2022-09-25T14:29:41.141Z,16.06
2022-09-25T14:34:42.663Z,15.53
2022-09-25T14:40:18.057Z,14.57
2022-09-25T14:45:51.878Z,13.26
2022-09-25T14:50:57.964Z,12.83
2022-09-25T14:56:02.549Z,12.73
2022-09-25T15:01:26.367Z,12.58
2022-09-25T15:06:34.098Z,12.91
2022-09-25T15:11:43.547Z,13.44
2022-09-25T15:17:24.010Z,13.53
2022-09-25T15:22:31.385Z,13.62
2022-09-25T15:27:34.665Z,13.87
2022-09-25T15:32:39.961Z,14.14
2022-09-25T15:37:41.946Z,14.08
2022-09-25T15:42:48.892Z,13.61
2022-09-25T15:47:53.182Z,13.32
2022-09-25T15:52:59.106Z,13.17
2022-09-25T15:58:08.031Z,13.04
2022-09-25T16:03:48.738Z,12.98
2022-09-25T16:09:08.640Z,12.88
2022-09-25T16:14:36.758Z,12.79
2022-09-25T16:19:41.145Z,12.74
2022-09-25T16:24:43.053Z,12.64
2022-09-25T16:29:45.125Z,12.49
2022-09-25T16:35:05.259Z,12.30
2022-09-25T16:40:25.433Z,12.07
2022-09-25T16:45:29.555Z,11.90
2022-09-25T16:50:39.553Z,11.86
2022-09-25T16:55:48.945Z,11.79
2022-09-25T17:00:51.033Z,11.66
2022-09-25T17:05:52.873Z,11.51
2022-09-25T17:10:54.626Z,11.45
2022-09-25T17:15:57.591Z,11.37
2022-09-25T17:21:02.484Z,11.36
2022-09-25T17:26:13.057Z,11.42
2022-09-25T17:31:22.153Z,11.44
2022-09-25T17:36:24.062Z,11.37
2022-09-25T17:41:33.430Z,11.35
2022-09-25T17:46:36.308Z,11.39
2022-09-25T17:51:39.135Z,11.38
2022-09-25T17:56:42.673Z,11.53
2022-09-25T18:01:44.624Z,11.52
2022-09-25T18:06:47.090Z,11.43
2022-09-25T18:11:48.858Z,11.43
2022-09-25T18:16:50.624Z,11.41
2022-09-25T18:22:10.956Z,11.61
2022-09-25T18:27:14.992Z,11.58
2022-09-25T18:32:16.859Z,11.52
2022-09-25T18:37:18.672Z,11.51
2022-09-25T18:42:20.529Z,11.69
2022-09-25T18:47:22.355Z,11.75
2022-09-25T18:52:24.298Z,11.69
2022-09-25T18:57:27.388Z,11.58
2022-09-25T19:02:31.590Z,11.57
2022-09-25T19:07:33.695Z,11.56
2022-09-25T19:12:35.750Z,11.61
2022-09-25T19:17:37.649Z,11.52
2022-09-25T19:22:41.158Z,11.48
2022-09-25T19:27:42.930Z,11.64
2022-09-25T19:32:44.708Z,11.88
2022-09-25T19:37:46.440Z,11.83
2022-09-25T19:42:49.567Z,11.81
2022-09-25T19:47:51.378Z,11.92
2022-09-25T19:52:54.785Z,11.73
2022-09-25T19:57:56.662Z,11.64
2022-09-25T20:02:58.713Z,11.75
2022-09-25T20:08:00.627Z,11.79
2022-09-25T20:13:02.909Z,11.72
2022-09-25T20:18:07.924Z,11.55
2022-09-25T20:23:10.182Z,11.49
2022-09-25T20:28:12.994Z,11.42
2022-09-25T20:33:14.740Z,11.51
2022-09-25T20:38:17.007Z,11.45
2022-09-25T20:43:18.845Z,11.57
2022-09-25T20:48:21.813Z,11.61
2022-09-25T20:53:23.851Z,11.61
2022-09-25T20:58:25.655Z,11.60
2022-09-25T21:03:30.568Z,11.60
2022-09-25T21:08:33.521Z,11.62
2022-09-25T21:13:36.286Z,11.61
2022-09-25T21:18:40.762Z,11.53
2022-09-25T21:23:43.630Z,11.44
2022-09-25T21:28:47.890Z,11.34
2022-09-25T21:33:57.062Z,11.23
2022-09-25T21:39:00.359Z,11.25
2022-09-25T21:44:06.060Z,11.13
2022-09-25T21:49:08.796Z,11.15
2022-09-25T21:54:12.430Z,11.20
2022-09-25T21:59:14.682Z,11.18
2022-09-25T22:04:16.713Z,11.20
2022-09-25T22:09:21.983Z,11.19
2022-09-25T22:14:23.873Z,11.19
2022-09-25T22:19:30.047Z,11.14
2022-09-25T22:24:31.963Z,11.13
2022-09-25T22:29:37.293Z,11.12
2022-09-25T22:34:40.652Z,11.09
2022-09-25T22:39:42.431Z,11.04
2022-09-25T22:44:44.180Z,11.01
2022-09-25T22:49:45.985Z,11.05
2022-09-25T22:54:47.746Z,11.06
2022-09-25T22:59:51.770Z,11.06
2022-09-25T23:04:54.044Z,11.01
2022-09-25T23:09:55.875Z,10.95
2022-09-25T23:14:57.660Z,10.92
2022-09-25T23:19:59.953Z,10.91
2022-09-25T23:25:01.769Z,10.98
2022-09-25T23:30:04.244Z,10.89
2022-09-25T23:35:07.712Z,10.81
2022-09-25T23:40:15.231Z,10.81
2022-09-25T23:45:17.485Z,10.84
2022-09-25T23:50:19.330Z,10.82
2022-09-25T23:55:21.123Z,10.78
